Time;durP1;ratioP1;P1;durP2;ratioP2;P2;SDS_P1;SDS_P2;PMS_P1;PMS_P2;Temp;Humidity;BMP_temperature;BMP_pressure;BME280_temperature;BME280_humidity;BME280_pressure;Samples;Min_cycle;Max_cycle;Signal;HPM_P1;HPM_P2
2023/04/11 00:01:03;;;;;;;5.18;3.20;;;;;;;11.18;69.07;100873.09;6308625;22;20060;-81
2023/04/11 00:03:29;;;;;;;5.57;3.58;;;;;;;11.03;69.02;100868.56;6281680;22;20068;-82
2023/04/11 00:05:54;;;;;;;5.97;3.30;;;;;;;10.80;70.08;100863.75;6308872;22;20011;-83
2023/04/11 00:08:20;;;;;;;6.45;3.35;;;;;;;10.92;69.75;100859.03;6308597;22;20133;-83
2023/04/11 00:10:48;;;;;;;5.93;3.40;;;;;;;10.87;70.23;100851.53;6308462;22;20019;-82
2023/04/11 00:13:13;;;;;;;6.72;2.95;;;;;;;10.87;69.90;100854.19;6281161;22;20427;-81
2023/04/11 00:15:39;;;;;;;6.68;3.33;;;;;;;10.80;70.07;100860.28;6308446;22;20008;-82
2023/04/11 00:18:05;;;;;;;4.78;3.47;;;;;;;10.49;71.92;100849.28;6308366;22;20007;-83
2023/04/11 00:20:31;;;;;;;4.80;2.97;;;;;;;10.58;72.78;100848.34;6308590;22;20084;-83
2023/04/11 00:22:57;;;;;;;8.35;3.70;;;;;;;10.49;72.53;100856.38;6308431;22;20430;-82
2023/04/11 00:25:23;;;;;;;9.82;3.10;;;;;;;10.44;72.73;100856.03;6308939;22;20004;-81
2023/04/11 00:27:48;;;;;;;4.97;3.30;;;;;;;10.21;74.15;100860.94;6309058;22;20051;-81
2023/04/11 00:30:14;;;;;;;6.22;3.65;;;;;;;10.23;73.53;100853.69;6281563;22;20016;-82
2023/04/11 00:32:39;;;;;;;12.25;4.20;;;;;;;10.30;73.02;100849.44;6282932;22;20009;-81
2023/04/11 00:35:07;;;;;;;10.32;4.28;;;;;;;10.19;73.99;100847.84;6282256;22;20007;-80
2023/04/11 00:37:34;;;;;;;11.85;4.70;;;;;;;10.22;73.28;100833.47;6309559;22;20003;-81
2023/04/11 00:40:04;;;;;;;7.30;3.95;;;;;;;10.52;72.69;100827.75;6309995;22;20014;-81
2023/04/11 00:42:30;;;;;;;10.25;4.22;;;;;;;10.52;72.30;100833.06;6308840;22;20019;-82
2023/04/11 00:44:59;;;;;;;6.72;3.45;;;;;;;10.62;71.69;100833.81;6308869;22;20046;-84
2023/04/11 00:47:24;;;;;;;6.47;3.47;;;;;;;10.50;72.90;100835.03;6308081;22;20014;-81
2023/04/11 00:49:50;;;;;;;10.43;4.05;;;;;;;10.54;73.17;100831.06;6281015;22;20011;-81
2023/04/11 00:52:16;;;;;;;6.18;3.30;;;;;;;10.64;72.98;100823.88;6308221;22;20320;-81
2023/04/11 00:54:41;;;;;;;7.28;3.35;;;;;;;10.82;71.80;100823.81;6280982;22;20018;-83
2023/04/11 00:57:07;;;;;;;4.68;3.13;;;;;;;10.79;72.12;100818.84;6308277;22;19999;-83
2023/04/11 00:59:33;;;;;;;4.72;3.20;;;;;;;10.65;72.80;100817.59;6280789;22;20137;-82
2023/04/11 01:02:00;;;;;;;4.40;3.03;;;;;;;10.67;72.96;100810.28;6309723;22;20097;-82
2023/04/11 01:04:28;;;;;;;6.75;3.55;;;;;;;10.71;72.92;100809.00;6308723;22;20014;-81
2023/04/11 01:07:00;;;;;;;5.80;3.58;;;;;;;10.75;73.22;100813.00;6281150;22;20010;-84
2023/04/11 01:09:27;;;;;;;5.25;3.17;;;;;;;10.75;73.47;100812.19;6308643;22;20011;-83
2023/04/11 01:11:53;;;;;;;7.93;3.40;;;;;;;10.79;72.37;100809.06;6308323;22;20011;-86
2023/04/11 01:14:19;;;;;;;4.30;3.00;;;;;;;10.94;72.61;100809.31;6308265;22;20003;-82
2023/04/11 01:16:47;;;;;;;4.05;2.80;;;;;;;10.51;73.78;100807.53;6308035;22;20012;-82
2023/04/11 01:19:20;;;;;;;3.95;2.70;;;;;;;10.36;74.90;100796.69;6307992;22;20007;-81
2023/04/11 01:21:49;;;;;;;5.63;3.00;;;;;;;10.65;74.74;100785.78;6280174;22;20114;-82
2023/04/11 01:24:14;;;;;;;5.80;3.03;;;;;;;10.65;73.79;100790.25;6307923;22;20007;-83
2023/04/11 01:26:40;;;;;;;6.22;3.10;;;;;;;10.48;76.07;100780.50;6307828;22;20484;-82
2023/04/11 01:29:06;;;;;;;5.28;3.40;;;;;;;10.56;76.39;100769.97;6280373;22;20012;-82
2023/04/11 01:31:32;;;;;;;4.22;2.58;;;;;;;10.72;75.00;100754.19;6280523;22;20069;-83
2023/04/11 01:33:59;;;;;;;4.78;2.92;;;;;;;10.59;74.90;100738.69;6308405;22;20430;-83
2023/04/11 01:36:25;;;;;;;4.38;2.70;;;;;;;10.42;76.84;100717.56;6281809;22;20018;-84
2023/04/11 01:38:52;;;;;;;4.22;2.53;;;;;;;9.97;80.44;100715.91;6280358;22;20091;-82
2023/04/11 01:41:18;;;;;;;6.82;2.88;;;;;;;10.09;80.09;100721.75;6280777;22;20011;-84
2023/04/11 01:43:44;;;;;;;4.55;3.05;;;;;;;10.08;80.14;100734.16;6254685;22;20148;-83
2023/04/11 01:46:10;;;;;;;4.20;3.05;;;;;;;10.19;80.90;100733.13;6307995;22;20003;-81
2023/04/11 01:48:36;;;;;;;4.68;3.08;;;;;;;10.08;80.73;100739.47;6280821;22;20014;-82
2023/04/11 01:51:03;;;;;;;4.47;2.88;;;;;;;10.02;80.71;100739.25;6286186;22;20015;-82
2023/04/11 01:53:29;;;;;;;3.60;2.80;;;;;;;10.07;81.76;100750.22;6312456;22;20066;-81
2023/04/11 01:55:55;;;;;;;4.75;3.03;;;;;;;10.18;82.29;100758.78;6284562;22;20011;-81
2023/04/11 01:58:20;;;;;;;3.40;2.63;;;;;;;10.58;80.05;100760.88;6282449;22;20015;-82
2023/04/11 02:00:46;;;;;;;5.82;2.97;;;;;;;10.68;78.13;100760.78;6284750;22;20030;-81
2023/04/11 02:03:11;;;;;;;4.78;3.28;;;;;;;10.41;79.02;100767.06;6312368;22;20067;-81
2023/04/11 02:05:38;;;;;;;4.38;3.08;;;;;;;10.24;80.19;100765.31;6312468;22;20039;-82
2023/04/11 02:08:03;;;;;;;7.10;3.45;;;;;;;10.29;80.86;100747.13;6286616;22;19999;-82
2023/04/11 02:10:29;;;;;;;4.53;2.95;;;;;;;10.52;78.76;100750.91;6313045;22;20072;-82
2023/04/11 02:12:54;;;;;;;4.13;2.85;;;;;;;10.43;78.50;100754.50;6312896;22;20011;-81
2023/04/11 02:15:20;;;;;;;6.07;3.65;;;;;;;10.50;77.13;100750.25;6308570;22;20422;-83
2023/04/11 02:17:46;;;;;;;4.28;3.00;;;;;;;10.74;77.00;100747.72;6280070;22;20342;-81
2023/04/11 02:20:12;;;;;;;5.32;3.15;;;;;;;10.86;74.66;100746.47;6307686;22;20013;-82
2023/04/11 02:22:38;;;;;;;5.05;2.90;;;;;;;10.91;73.92;100743.34;6307816;22;20011;-82
2023/04/11 02:25:05;;;;;;;6.80;3.13;;;;;;;10.70;74.56;100735.78;6280270;22;20010;-82
2023/04/11 02:27:33;;;;;;;5.47;3.08;;;;;;;10.76;74.68;100736.97;6307872;22;20090;-82
2023/04/11 02:29:59;;;;;;;4.03;2.95;;;;;;;10.63;75.12;100733.91;6279202;22;20094;-81
2023/04/11 02:32:26;;;;;;;3.63;2.65;;;;;;;10.53;76.11;100726.09;6307126;22;20011;-82
2023/04/11 02:34:52;;;;;;;3.95;2.83;;;;;;;10.73;75.56;100716.91;6307493;22;20011;-82
2023/04/11 02:37:18;;;;;;;3.75;2.53;;;;;;;10.97;74.72;100704.75;6307735;22;20010;-82
2023/04/11 02:39:43;;;;;;;3.72;3.08;;;;;;;10.87;73.98;100710.19;6279518;22;20007;-81
2023/04/11 02:42:11;;;;;;;4.32;3.08;;;;;;;10.89;75.85;100711.69;6280559;22;20023;-83
2023/04/11 02:44:36;;;;;;;8.43;3.28;;;;;;;10.65;76.18;100722.16;6307639;22;20046;-83
2023/04/11 02:47:03;;;;;;;4.18;2.90;;;;;;;10.50;77.85;100718.44;6279976;22;20016;-85
2023/04/11 02:49:29;;;;;;;3.97;3.10;;;;;;;10.46;79.54;100709.16;6280038;22;20011;-81
2023/04/11 02:51:55;;;;;;;3.70;2.90;;;;;;;10.54;78.98;100714.47;6279917;22;20141;-83
2023/04/11 02:54:20;;;;;;;4.60;2.97;;;;;;;10.52;78.99;100711.16;6279665;22;20043;-82
2023/04/11 02:56:46;;;;;;;4.93;3.03;;;;;;;10.78;77.99;100725.22;6280148;22;20018;-82
2023/04/11 02:59:11;;;;;;;4.97;3.70;;;;;;;11.00;76.50;100723.84;6279867;22;20418;-82
2023/04/11 03:01:37;;;;;;;5.05;3.00;;;;;;;10.76;77.86;100719.25;6280083;22;20427;-82
2023/04/11 03:04:03;;;;;;;4.35;2.75;;;;;;;10.72;78.92;100711.75;6280972;22;20046;-83
2023/04/11 03:06:40;;;;;;;4.55;3.20;;;;;;;10.88;79.02;100714.47;6280374;22;20004;-83
2023/04/11 03:09:05;;;;;;;5.50;3.35;;;;;;;10.55;78.95;100700.25;6280382;22;20042;-82
2023/04/11 03:11:32;;;;;;;4.45;3.38;;;;;;;10.46;79.35;100693.25;6279990;22;20303;-82
2023/04/11 03:13:58;;;;;;;5.30;3.00;;;;;;;10.67;78.14;100682.25;6279863;22;20016;-82
2023/04/11 03:16:24;;;;;;;3.92;2.92;;;;;;;10.61;77.63;100672.28;6308007;22;20015;-82
2023/04/11 03:18:50;;;;;;;4.25;3.08;;;;;;;10.64;78.27;100667.47;6280573;22;20137;-82
2023/04/11 03:21:15;;;;;;;7.85;2.72;;;;;;;10.78;76.89;100674.84;6280167;22;20011;-83
2023/04/11 03:23:43;;;;;;;7.63;3.15;;;;;;;10.89;76.09;100679.88;6280070;22;20042;-82
2023/04/11 03:26:09;;;;;;;4.93;3.10;;;;;;;10.73;75.61;100690.41;6281609;22;20034;-82
2023/04/11 03:28:35;;;;;;;4.10;3.20;;;;;;;10.52;77.42;100695.25;6309465;22;20042;-83
2023/04/11 03:31:01;;;;;;;4.90;3.17;;;;;;;10.57;77.83;100695.59;6281624;22;20046;-81
2023/04/11 03:33:26;;;;;;;5.32;3.42;;;;;;;10.63;77.90;100695.00;6256235;22;20007;-82
2023/04/11 03:35:52;;;;;;;4.63;3.17;;;;;;;10.70;77.36;100698.69;6308842;22;20008;-84
2023/04/11 03:38:17;;;;;;;4.53;3.30;;;;;;;10.58;77.27;100694.63;6309307;22;20008;-82
2023/04/11 03:40:43;;;;;;;5.05;3.42;;;;;;;10.84;76.04;100692.75;6281436;22;20018;-81
2023/04/11 03:43:16;;;;;;;5.45;3.45;;;;;;;10.73;76.22;100692.22;6281441;22;20095;-82
2023/04/11 03:45:43;;;;;;;4.93;3.13;;;;;;;10.82;76.19;100685.97;6308899;22;20503;-82
2023/04/11 03:48:25;;;;;;;4.80;3.47;;;;;;;10.77;76.93;100677.66;6308675;22;20499;-82
2023/04/11 03:50:58;;;;;;;5.32;3.17;;;;;;;10.94;76.79;100675.91;6281277;22;20007;-81
2023/04/11 03:53:32;;;;;;;4.90;3.08;;;;;;;11.14;75.46;100661.34;6281209;22;20419;-84
2023/04/11 03:56:04;;;;;;;6.75;3.30;;;;;;;11.27;74.96;100651.94;6281558;22;20031;-80
2023/04/11 03:58:35;;;;;;;5.20;3.15;;;;;;;11.16;75.67;100646.13;6281153;22;20015;-81
2023/04/11 04:01:01;;;;;;;4.05;3.00;;;;;;;10.99;76.54;100647.06;6281259;22;20346;-83
2023/04/11 04:03:29;;;;;;;5.32;3.33;;;;;;;11.20;76.60;100645.63;6281025;22;20044;-82
2023/04/11 04:05:56;;;;;;;3.92;3.10;;;;;;;10.97;76.99;100641.13;6308429;22;20012;-81
2023/04/11 04:08:22;;;;;;;5.95;3.55;;;;;;;10.84;78.21;100637.06;6280968;22;20011;-82
2023/04/11 04:10:48;;;;;;;5.78;3.50;;;;;;;10.72;79.50;100640.19;6281508;22;20453;-81
2023/04/11 04:13:14;;;;;;;4.97;3.65;;;;;;;10.67;80.56;100653.09;6308318;22;20438;-81
2023/04/11 04:15:46;;;;;;;6.00;3.30;;;;;;;10.82;79.89;100660.28;6281015;22;20015;-81
2023/04/11 04:18:13;;;;;;;4.88;3.50;;;;;;;10.51;81.85;100669.75;6280915;22;20014;-81
2023/04/11 04:20:48;;;;;;;4.90;3.67;;;;;;;10.44;82.76;100676.66;6281091;22;20003;-81
2023/04/11 04:23:16;;;;;;;5.40;3.25;;;;;;;10.35;83.60;100688.19;6308405;22;20011;-82
2023/04/11 04:26:04;;;;;;;5.72;3.20;;;;;;;10.42;83.25;100686.59;6281120;22;20327;-81
2023/04/11 04:28:32;;;;;;;5.65;3.30;;;;;;;10.41;84.32;100687.56;6308740;22;20011;-81
2023/04/11 04:31:01;;;;;;;4.60;3.45;;;;;;;10.32;85.88;100677.91;6281200;22;20011;-84
2023/04/11 04:33:33;;;;;;;5.63;4.00;;;;;;;10.29;86.56;100684.38;6285752;22;20064;-82
2023/04/11 04:36:04;;;;;;;5.78;3.75;;;;;;;10.42;87.17;100685.75;6287973;22;20022;-86
2023/04/11 04:38:31;;;;;;;14.07;3.42;;;;;;;10.54;85.92;100693.28;6309665;22;20036;-83
2023/04/11 04:40:58;;;;;;;6.65;3.65;;;;;;;10.54;86.05;100692.47;6308796;22;20090;-84
2023/04/11 04:43:26;;;;;;;10.40;4.30;;;;;;;10.51;87.10;100698.88;6281499;22;20011;-82
2023/04/11 04:46:23;;;;;;;6.20;3.95;;;;;;;10.48;86.19;100693.91;6240164;22;20022;-82
2023/04/11 04:48:50;;;;;;;7.38;4.05;;;;;;;10.51;85.40;100698.88;6280867;22;20059;-81
2023/04/11 04:51:16;;;;;;;8.85;4.20;;;;;;;10.25;86.56;100698.06;6281264;22;20015;-82
2023/04/11 04:53:42;;;;;;;7.93;4.53;;;;;;;10.07;87.34;100705.22;6255845;22;20039;-81
2023/04/11 04:56:10;;;;;;;6.25;4.18;;;;;;;10.01;88.57;100713.78;6281420;22;20023;-82
2023/04/11 04:58:39;;;;;;;9.70;4.53;;;;;;;9.94;88.99;100705.63;6281375;22;20338;-83
2023/04/11 05:01:07;;;;;;;8.45;5.03;;;;;;;10.01;88.92;100703.19;6255861;22;20015;-83
2023/04/11 05:03:34;;;;;;;5.60;4.43;;;;;;;10.14;87.76;100695.69;6282075;22;20331;-85
2023/04/11 05:06:01;;;;;;;6.22;4.53;;;;;;;10.30;87.36;100690.50;6280937;22;20007;-83
2023/04/11 05:08:27;;;;;;;9.63;5.32;;;;;;;10.44;86.56;100676.66;6281427;22;20146;-83
2023/04/11 05:10:55;;;;;;;6.13;4.65;;;;;;;10.34;88.71;100686.56;6280636;22;20018;-82
2023/04/11 05:13:21;;;;;;;8.85;4.85;;;;;;;10.64;87.19;100687.88;6256131;22;20335;-85
2023/04/11 05:15:50;;;;;;;12.77;6.65;;;;;;;10.31;88.10;100686.84;6280597;22;20039;-84
2023/04/11 05:18:16;;;;;;;8.90;5.70;;;;;;;10.02;91.71;100686.28;6280903;22;20464;-84
2023/04/11 05:20:42;;;;;;;12.57;5.95;;;;;;;9.95;93.46;100679.94;6281757;22;20026;-84
2023/04/11 05:23:10;;;;;;;9.05;5.63;;;;;;;9.78;94.33;100671.88;6281965;22;20015;-85
2023/04/11 05:25:36;;;;;;;11.57;7.05;;;;;;;9.70;96.61;100673.63;6282547;22;20011;-84
2023/04/11 05:28:03;;;;;;;11.38;5.95;;;;;;;9.86;95.66;100668.47;6310574;22;20010;-85
2023/04/11 05:30:30;;;;;;;13.45;7.05;;;;;;;9.52;100.00;100663.06;6256169;22;20019;-82
2023/04/11 05:32:55;;;;;;;10.05;5.88;;;;;;;9.37;100.00;100663.75;6310174;22;20018;-84
2023/04/11 05:35:21;;;;;;;15.40;5.72;;;;;;;9.34;100.00;100659.59;6282650;22;20015;-84
2023/04/11 05:37:50;;;;;;;9.95;5.20;;;;;;;9.39;100.00;100661.78;6282737;22;20495;-86
2023/04/11 05:40:16;;;;;;;12.45;5.22;;;;;;;9.49;100.00;100657.25;6310838;22;20003;-85
2023/04/11 05:42:42;;;;;;;11.68;4.82;;;;;;;9.69;100.00;100670.16;6282370;22;20011;-87
2023/04/11 05:45:08;;;;;;;6.60;5.05;;;;;;;9.95;100.00;100658.75;6282680;22;20018;-86
2023/04/11 05:47:34;;;;;;;10.25;5.60;;;;;;;9.85;100.00;100654.41;6311631;22;20023;-87
2023/04/11 05:50:00;;;;;;;10.13;5.47;;;;;;;10.04;100.00;100644.63;6308496;22;20434;-85
2023/04/11 05:52:26;;;;;;;18.65;5.68;;;;;;;9.92;100.00;100645.84;6282314;22;20069;-85
2023/04/11 05:54:51;;;;;;;9.38;5.35;;;;;;;9.66;100.00;100629.94;6284825;22;20011;-82
2023/04/11 05:57:17;;;;;;;11.07;5.22;;;;;;;9.68;100.00;100625.31;6310156;22;20018;-85
2023/04/11 05:59:42;;;;;;;15.55;5.72;;;;;;;9.88;100.00;100624.97;6281773;22;20338;-85
2023/04/11 06:02:08;;;;;;;14.38;5.57;;;;;;;9.83;100.00;100611.38;6281516;22;20327;-85
2023/04/11 06:04:33;;;;;;;9.27;5.07;;;;;;;10.20;100.00;100618.25;6308048;22;20007;-84
2023/04/11 06:07:02;;;;;;;13.63;5.60;;;;;;;10.20;100.00;100618.25;6309691;22;20015;-83
2023/04/11 06:09:28;;;;;;;12.93;5.60;;;;;;;10.05;100.00;100612.66;6307758;22;20008;-84
2023/04/11 06:11:54;;;;;;;11.65;5.72;;;;;;;9.98;100.00;100597.56;6307703;22;20510;-85
2023/04/11 06:14:19;;;;;;;13.15;5.80;;;;;;;9.90;100.00;100593.06;6308282;22;20125;-84
2023/04/11 06:16:45;;;;;;;8.90;5.65;;;;;;;10.01;100.00;100578.75;6307825;22;20011;-85
2023/04/11 06:19:10;;;;;;;14.63;5.90;;;;;;;10.03;100.00;100569.66;6308029;22;20488;-83
2023/04/11 06:21:38;;;;;;;10.80;5.22;;;;;;;10.20;100.00;100583.84;6308103;22;20011;-84
2023/04/11 06:24:08;;;;;;;11.25;5.15;;;;;;;10.39;100.00;100594.19;6280839;22;20007;-85
2023/04/11 06:26:33;;;;;;;10.20;5.10;;;;;;;10.55;98.23;100599.53;6308263;22;20014;-85
2023/04/11 06:29:01;;;;;;;9.88;4.57;;;;;;;10.63;100.00;100602.22;6308118;22;20015;-87
2023/04/11 06:31:27;;;;;;;7.63;5.15;;;;;;;10.73;100.00;100581.72;6309598;22;20057;-86
2023/04/11 06:33:52;;;;;;;7.55;4.38;;;;;;;10.96;98.39;100575.81;6282089;22;20042;-89
2023/04/11 06:36:18;;;;;;;10.18;4.40;;;;;;;11.25;97.30;100577.00;6310502;22;20367;-86
2023/04/11 06:38:44;;;;;;;10.55;4.30;;;;;;;11.56;92.72;100585.13;6309177;22;20442;-86
2023/04/11 06:41:09;;;;;;;6.25;4.05;;;;;;;11.91;86.95;100590.09;6284983;22;20004;-89
2023/04/11 06:43:35;;;;;;;9.35;4.07;;;;;;;11.85;87.37;100592.59;6310912;22;20012;-87
2023/04/11 06:46:00;;;;;;;7.15;4.38;;;;;;;11.89;88.09;100596.56;6309487;22;20010;-87
2023/04/11 06:48:26;;;;;;;6.30;4.35;;;;;;;12.27;84.64;100593.16;6308355;22;20003;-87
2023/04/11 06:50:51;;;;;;;11.13;4.75;;;;;;;12.56;83.38;100592.53;6310123;22;20011;-86
2023/04/11 06:53:17;;;;;;;5.72;4.40;;;;;;;13.30;77.72;100601.78;6281247;22;20078;-86
2023/04/11 06:55:42;;;;;;;9.85;4.38;;;;;;;13.35;73.45;100608.25;6305525;22;20007;-85
2023/04/11 06:58:08;;;;;;;8.43;4.95;;;;;;;13.41;72.15;100606.69;6310088;22;20010;-88
2023/04/11 07:00:33;;;;;;;14.15;5.18;;;;;;;13.61;69.70;100612.34;6310671;22;20011;-87
2023/04/11 07:02:59;;;;;;;8.68;5.32;;;;;;;14.15;68.55;100615.69;6316476;22;20023;-88
2023/04/11 07:05:25;;;;;;;11.88;5.38;;;;;;;14.64;68.90;100615.97;6286524;22;20015;-86
2023/04/11 07:07:54;;;;;;;11.82;6.00;;;;;;;15.14;67.55;100609.78;6286178;22;20031;-85
2023/04/11 07:10:20;;;;;;;9.70;6.53;;;;;;;15.38;66.45;100607.53;6311233;22;20503;-89
2023/04/11 07:12:45;;;;;;;11.32;6.13;;;;;;;15.61;64.73;100604.69;6309552;22;20086;-83
2023/04/11 07:15:10;;;;;;;9.77;5.70;;;;;;;15.57;63.71;100608.78;6309686;22;20012;-85
2023/04/11 07:17:36;;;;;;;15.82;6.32;;;;;;;15.53;65.90;100612.88;6308933;22;20311;-84
2023/04/11 07:20:05;;;;;;;18.80;6.63;;;;;;;15.58;66.19;100613.09;6309143;22;20010;-88
2023/04/11 07:22:30;;;;;;;11.82;5.85;;;;;;;15.63;65.18;100605.34;6283249;22;20078;-89
2023/04/11 07:24:56;;;;;;;12.13;5.60;;;;;;;15.74;64.09;100598.66;6311082;22;20012;-87
2023/04/11 07:27:23;;;;;;;10.60;5.72;;;;;;;16.09;62.56;100599.50;6315456;22;20010;-90
2023/04/11 07:29:49;;;;;;;13.75;5.97;;;;;;;15.69;65.58;100579.69;6294709;22;20015;-84
2023/04/11 07:32:17;;;;;;;9.57;5.68;;;;;;;15.65;67.04;100584.59;6331958;22;20014;-84
2023/04/11 07:34:43;;;;;;;10.05;5.80;;;;;;;16.11;66.04;100584.91;6333030;22;20018;-84
2023/04/11 07:37:09;;;;;;;15.85;5.85;;;;;;;16.13;64.55;100582.06;6330597;22;19995;-84
2023/04/11 07:40:08;;;;;;;16.98;6.10;;;;;;;16.85;62.15;100585.09;6334254;22;20007;-85
2023/04/11 07:42:34;;;;;;;13.10;6.25;;;;;;;16.94;59.98;100583.88;6283047;22;20135;-84
2023/04/11 07:44:59;;;;;;;9.52;6.45;;;;;;;16.76;60.96;100581.78;6296445;22;20031;-81
2023/04/11 07:47:25;;;;;;;12.80;6.40;;;;;;;17.01;60.48;100572.19;6319590;22;20037;-87
2023/04/11 07:49:51;;;;;;;7.85;5.57;;;;;;;17.14;56.58;100582.09;6314617;22;20011;-86
2023/04/11 07:52:17;;;;;;;10.27;6.15;;;;;;;17.09;56.73;100581.06;6315360;22;20007;-85
2023/04/11 07:54:42;;;;;;;14.90;5.70;;;;;;;16.63;59.85;100584.41;6317681;22;20014;-85
2023/04/11 07:57:08;;;;;;;19.02;7.05;;;;;;;16.65;59.39;100573.50;6316895;22;20007;-89
2023/04/11 07:59:36;;;;;;;9.77;5.68;;;;;;;16.91;59.40;100579.78;6324179;22;20031;-90
2023/04/11 08:02:18;;;;;;;9.23;5.32;;;;;;;16.75;59.62;100581.97;6323404;22;20004;-90
2023/04/11 08:04:44;;;;;;;9.40;5.03;;;;;;;16.88;58.33;100582.84;6322252;22;20007;-87
2023/04/11 08:07:12;;;;;;;7.85;4.88;;;;;;;16.83;56.21;100584.50;6254966;22;20011;-87
2023/04/11 08:09:38;;;;;;;8.05;5.05;;;;;;;16.80;56.06;100585.72;6308571;22;20003;-86
2023/04/11 08:12:05;;;;;;;8.38;4.97;;;;;;;16.93;56.73;100577.72;6311320;22;20007;-86
2023/04/11 08:14:30;;;;;;;7.88;5.07;;;;;;;17.79;54.73;100589.41;6314052;22;20522;-86
2023/04/11 08:16:58;;;;;;;8.60;5.38;;;;;;;17.76;55.43;100592.50;6306379;22;20007;-89
2023/04/11 08:19:24;;;;;;;11.57;6.10;;;;;;;17.93;54.71;100587.53;6307602;22;20397;-88
2023/04/11 08:21:51;;;;;;;14.70;6.28;;;;;;;17.86;55.41;100566.09;6306979;22;20064;-86
2023/04/11 08:24:17;;;;;;;10.07;5.90;;;;;;;18.37;53.76;100559.97;6254762;22;20069;-88
2023/04/11 08:26:42;;;;;;;14.93;6.32;;;;;;;18.38;54.30;100581.22;6308515;22;20003;-88
2023/04/11 08:29:10;;;;;;;10.27;6.22;;;;;;;18.91;51.91;100595.28;6285023;22;20010;-87
2023/04/11 08:31:36;;;;;;;12.55;6.15;;;;;;;18.93;51.80;100584.31;6283265;22;20270;-87
2023/04/11 08:34:02;;;;;;;13.40;6.55;;;;;;;18.66;52.02;100593.56;6308789;22;20065;-85
2023/04/11 08:36:28;;;;;;;10.18;6.57;;;;;;;18.15;46.41;100598.84;6281869;22;20011;-86
2023/04/11 08:38:55;;;;;;;14.55;6.60;;;;;;;17.82;47.26;100594.34;6309797;22;20011;-85
2023/04/11 08:41:21;;;;;;;13.23;6.63;;;;;;;17.77;47.86;100582.56;6313415;22;20007;-86
2023/04/11 08:43:47;;;;;;;11.38;7.30;;;;;;;17.68;49.42;100573.94;6322706;22;20010;-84
2023/04/11 08:46:15;;;;;;;14.35;7.10;;;;;;;18.34;47.24;100565.75;6264623;22;20070;-87
2023/04/11 08:48:40;;;;;;;11.88;6.82;;;;;;;18.56;46.67;100567.97;6314037;22;20064;-88
2023/04/11 08:51:06;;;;;;;14.60;6.10;;;;;;;18.55;46.57;100565.50;6260329;22;20043;-87
2023/04/11 08:53:35;;;;;;;17.38;7.05;;;;;;;18.02;46.02;100554.91;6312938;22;20036;-91
2023/04/11 08:56:02;;;;;;;15.48;6.35;;;;;;;18.21;45.53;100553.22;6262614;22;20022;-89
2023/04/11 08:58:27;;;;;;;16.38;7.65;;;;;;;18.40;44.07;100548.81;6311337;22;20078;-85
2023/04/11 09:00:53;;;;;;;16.80;7.28;;;;;;;18.64;43.44;100542.75;6310415;22;20431;-89
2023/04/11 09:03:18;;;;;;;16.92;7.30;;;;;;;19.39;41.37;100546.44;6312020;22;20018;-90
2023/04/11 09:05:45;;;;;;;16.80;7.28;;;;;;;19.16;42.58;100541.59;6311194;22;20057;-86
2023/04/11 09:08:15;;;;;;;12.02;6.82;;;;;;;19.84;41.29;100549.78;6283936;22;20003;-88
2023/04/11 09:10:48;;;;;;;17.35;7.82;;;;;;;19.75;40.64;100545.72;6282590;22;20046;-90
2023/04/11 09:13:20;;;;;;;13.35;6.75;;;;;;;20.17;38.74;100547.56;6289161;22;20007;-87
2023/04/11 09:15:47;;;;;;;11.50;6.73;;;;;;;20.22;39.21;100557.66;6319790;22;20106;-87
2023/04/11 09:18:43;;;;;;;13.95;7.10;;;;;;;20.77;37.86;100551.22;6290423;22;20015;-85
2023/04/11 09:21:14;;;;;;;11.50;7.30;;;;;;;21.01;36.66;100539.44;6137408;23;20028;-83
2023/04/11 09:23:40;;;;;;;12.73;6.90;;;;;;;20.65;36.98;100541.44;6161431;23;20062;-84
2023/04/11 09:26:08;;;;;;;12.52;7.25;;;;;;;21.03;36.72;100536.53;6158777;23;20090;-85
2023/04/11 09:28:51;;;;;;;10.73;6.28;;;;;;;21.81;35.29;100541.75;6161320;23;20165;-86
2023/04/11 09:31:16;;;;;;;9.73;6.15;;;;;;;22.21;33.15;100542.66;6209062;22;20015;-83
2023/04/11 09:33:54;;;;;;;10.32;6.78;;;;;;;21.85;33.95;100538.31;6311609;22;20082;-83
2023/04/11 09:36:22;;;;;;;11.68;6.63;;;;;;;21.00;35.99;100518.97;6289546;22;20011;-83
2023/04/11 09:38:48;;;;;;;13.10;6.68;;;;;;;20.87;34.64;100507.56;6263820;22;20011;-82
2023/04/11 09:41:14;;;;;;;10.70;6.53;;;;;;;20.76;34.84;100501.06;6283218;22;20018;-85
2023/04/11 09:43:55;;;;;;;12.90;6.75;;;;;;;20.87;34.05;100512.94;6312533;22;20012;-85
2023/04/11 09:46:22;;;;;;;10.80;6.57;;;;;;;20.69;33.95;100508.41;6312895;22;20681;-91
2023/04/11 09:48:49;;;;;;;15.88;7.32;;;;;;;21.06;34.34;100490.25;6284941;22;20003;-83
2023/04/11 09:51:15;;;;;;;11.05;6.80;;;;;;;21.11;33.72;100483.16;6309173;22;20014;-83
2023/04/11 09:53:41;;;;;;;15.95;7.60;;;;;;;21.31;32.66;100482.03;6311990;22;20007;-84
2023/04/11 09:56:08;;;;;;;13.88;8.18;;;;;;;20.85;32.88;100472.75;6310924;22;20015;-87
2023/04/11 09:58:35;;;;;;;12.70;7.57;;;;;;;20.67;33.87;100470.13;6284113;22;20011;-88
2023/04/11 10:01:02;;;;;;;10.90;6.95;;;;;;;21.22;31.91;100472.63;6256526;22;20002;-88
2023/04/11 10:03:33;;;;;;;14.45;6.72;;;;;;;21.58;31.52;100480.50;6310411;22;20466;-86
2023/04/11 10:06:01;;;;;;;13.05;6.93;;;;;;;21.26;32.45;100465.72;6281039;22;20450;-84
2023/04/11 10:08:31;;;;;;;11.82;6.20;;;;;;;22.08;32.88;100467.31;6281951;22;20011;-88
2023/04/11 10:11:01;;;;;;;18.00;7.85;;;;;;;23.00;30.31;100468.81;6309556;22;20337;-83
2023/04/11 10:13:44;;;;;;;12.93;7.47;;;;;;;22.93;30.54;100462.78;6310605;22;20008;-86
2023/04/11 10:16:17;;;;;;;11.27;6.78;;;;;;;23.70;29.22;100462.13;6309912;22;20007;-86
2023/04/11 10:18:52;;;;;;;11.05;6.95;;;;;;;23.47;29.48;100458.53;6310656;22;20017;-86
2023/04/11 10:21:29;;;;;;;15.38;7.65;;;;;;;23.34;30.32;100449.91;6309437;22;20019;-85
2023/04/11 10:24:19;;;;;;;11.93;7.32;;;;;;;22.36;31.23;100436.84;6308525;22;20019;-85
2023/04/11 10:26:49;;;;;;;11.05;7.10;;;;;;;22.51;31.27;100426.31;6308819;22;20007;-86
2023/04/11 10:29:32;;;;;;;15.23;6.97;;;;;;;23.02;30.43;100431.56;6308129;22;20018;-86
2023/04/11 10:32:16;;;;;;;10.82;6.78;;;;;;;23.73;29.71;100439.97;6281251;22;20016;-87
2023/04/11 10:34:50;;;;;;;12.38;6.40;;;;;;;23.49;30.71;100437.47;6282310;22;20018;-85
2023/04/11 10:37:33;;;;;;;13.80;6.95;;;;;;;23.28;31.01;100448.19;6311160;22;20031;-83
2023/04/11 10:40:11;;;;;;;12.50;7.07;;;;;;;23.24;31.59;100445.16;6306693;22;20046;-90
2023/04/11 10:42:41;;;;;;;10.93;7.32;;;;;;;23.29;31.60;100444.44;6281569;22;20011;-88
2023/04/11 10:45:29;;;;;;;12.90;7.22;;;;;;;22.96;32.14;100443.38;6282631;22;20012;-89
2023/04/11 10:47:57;;;;;;;15.90;7.72;;;;;;;22.77;32.33;100443.84;6282384;22;20011;-90
2023/04/11 10:50:26;;;;;;;9.93;6.97;;;;;;;23.57;31.99;100450.56;6289433;22;20031;-87
2023/04/11 10:52:59;;;;;;;13.95;8.63;;;;;;;23.48;31.69;100451.22;6314865;22;20016;-86
2023/04/11 10:55:27;;;;;;;12.65;7.00;;;;;;;24.23;30.58;100442.53;6313782;22;20809;-85
2023/04/11 10:58:15;;;;;;;13.65;7.05;;;;;;;24.31;30.60;100433.94;6286612;22;20377;-87
2023/04/11 11:00:53;;;;;;;13.68;7.82;;;;;;;23.62;30.83;100430.88;6311344;22;20015;-86
2023/04/11 11:03:32;;;;;;;15.40;7.50;;;;;;;23.61;31.54;100434.66;6285262;22;20015;-86
2023/04/11 11:06:08;;;;;;;14.77;7.95;;;;;;;23.18;32.71;100424.50;6314321;22;20030;-88
2023/04/11 11:08:45;;;;;;;12.77;7.07;;;;;;;23.23;32.34;100431.91;6310618;22;20003;-89
2023/04/11 11:11:24;;;;;;;16.00;7.50;;;;;;;23.40;32.07;100436.25;6312985;22;20011;-91
2023/04/11 11:13:52;;;;;;;10.80;7.30;;;;;;;23.88;31.82;100426.63;6275863;22;20015;-91
2023/04/11 11:16:30;;;;;;;11.85;7.40;;;;;;;23.14;31.96;100418.78;6317218;22;20000;-88
2023/04/11 11:19:04;;;;;;;13.25;6.32;;;;;;;23.16;32.87;100415.84;6205429;23;20026;-88
2023/04/11 11:21:33;;;;;;;10.98;6.40;;;;;;;22.40;34.23;100400.19;6245255;23;20023;-90
2023/04/11 11:24:00;;;;;;;11.15;6.90;;;;;;;22.28;34.13;100394.00;6243539;23;20399;-87
2023/04/11 11:26:43;;;;;;;13.00;7.82;;;;;;;22.40;33.93;100400.19;6242853;23;20035;-89